Holbrook, Arizona
Current Conditions -  °F | °C
As of 2:56 PM on Monday 24 Nov 2014 (Local Time) from KINW Reporting Station
Clear Clear  
Wind Chill: 11°   Ceiling: Unl
Heat Index: 11°   Visibility: 10mi
Dew Point: -17°   Wind: 23mph
Humidity: 13%   Direction: 310°NW
Pressure: 30.23"   Gusts: 31mph
Location:  34.9°N, 110.16°W
Report Text: KINW 242156Z AUTO 31020G27KT 10SM CLR 11/M17 A3023 RMK AO2 PK WND 34033/2057 SLP246 T01061167
Loading
Personal Weather Stations






























Interactive Weather Map New forecast layout! Learn more

10-Day Weather Forecast

Advertisements
Track Severe Weather on mobile